Time;durP1;ratioP1;P1;durP2;ratioP2;P2;SDS_P1;SDS_P2;PMS_P1;PMS_P2;Temp;Humidity;BMP_temperature;BMP_pressure;BME280_temperature;BME280_humidity;BME280_pressure;Samples;Min_cycle;Max_cycle;Signal;HPM_P1;HPM_P2
2023/08/14 00:05:47;;;;;;;11.7;6;;;;;;;20.24;82.34;;;;;
2023/08/14 00:16:47;;;;;;;12.7;6.7;;;;;;;20.15;83.27;;;;;
2023/08/14 00:27:47;;;;;;;12.7;6.7;;;;;;;20;83.56;;;;;
2023/08/14 00:37:47;;;;;;;12.7;6.7;;;;;;;20.01;82.82;;;;;
2023/08/14 00:48:47;;;;;;;9.9;6.3;;;;;;;19.99;83.06;;;;;
2023/08/14 00:58:47;;;;;;;9.9;6.3;;;;;;;20.05;82.77;;;;;
2023/08/14 01:09:47;;;;;;;9.9;6.3;;;;;;;20.08;82.79;;;;;
2023/08/14 01:20:47;;;;;;;8.9;6.6;;;;;;;20.18;83.11;;;;;
2023/08/14 01:31:47;;;;;;;8.9;6.6;;;;;;;20.23;82.99;;;;;
2023/08/14 01:42:47;;;;;;;8.9;6.6;;;;;;;20.2;83.73;;;;;
2023/08/14 01:53:47;;;;;;;9.4;7;;;;;;;20.23;83.8;;;;;
2023/08/14 02:03:47;;;;;;;9.4;7;;;;;;;20.32;83.62;;;;;
2023/08/14 02:14:47;;;;;;;9.4;7;;;;;;;20.34;83.59;;;;;
2023/08/14 02:24:47;;;;;;;9.2;6.6;;;;;;;20.37;83.37;;;;;
2023/08/14 02:35:47;;;;;;;9.2;6.6;;;;;;;20.35;83.68;;;;;
2023/08/14 02:46:47;;;;;;;8.7;5.4;;;;;;;20.4;83.07;;;;;
2023/08/14 02:56:47;;;;;;;8.7;5.4;;;;;;;20.42;82.66;;;;;
2023/08/14 03:07:47;;;;;;;8.7;5.4;;;;;;;20.27;83.68;;;;;
2023/08/14 03:18:47;;;;;;;9.1;6.4;;;;;;;20.23;83.81;;;;;
2023/08/14 03:28:49;;;;;;;9.1;6.4;;;;;;;20.4;82.93;;;;;
2023/08/14 03:38:52;;;;;;;9.1;6.4;;;;;;;20.35;83.19;;;;;
2023/08/14 03:48:52;;;;;;;8.8;5.9;;;;;;;20.42;83.21;;;;;
2023/08/14 03:59:52;;;;;;;8.8;5.9;;;;;;;20.51;83.45;;;;;
2023/08/14 04:09:52;;;;;;;8.8;5.9;;;;;;;20.57;83.54;;;;;
2023/08/14 04:20:52;;;;;;;11.2;7.2;;;;;;;20.68;83.01;;;;;
2023/08/14 04:30:52;;;;;;;11.2;7.2;;;;;;;20.78;82.32;;;;;
2023/08/14 04:40:52;;;;;;;11.2;7.2;;;;;;;20.73;82.45;;;;;
2023/08/14 04:51:52;;;;;;;9.2;5.8;;;;;;;20.87;82.3;;;;;
2023/08/14 05:01:52;;;;;;;9.2;5.8;;;;;;;21.15;81.47;;;;;
2023/08/14 05:11:52;;;;;;;9.2;5.8;;;;;;;21.41;81.13;;;;;
2023/08/14 05:22:52;;;;;;;9.8;6.1;;;;;;;21.68;79.46;;;;;
2023/08/14 05:33:52;;;;;;;9.8;6.1;;;;;;;22.01;79.36;;;;;
2023/08/14 05:43:52;;;;;;;9.8;6.1;;;;;;;22.51;77.79;;;;;
2023/08/14 05:54:52;;;;;;;9;5.3;;;;;;;22.79;70.57;;;;;
2023/08/14 06:05:52;;;;;;;9;5.3;;;;;;;23.29;69.78;;;;;
2023/08/14 06:15:52;;;;;;;9;5.3;;;;;;;23.69;69.38;;;;;
2023/08/14 06:26:52;;;;;;;8.5;4.2;;;;;;;24.24;67.37;;;;;
2023/08/14 06:36:52;;;;;;;8.5;4.2;;;;;;;24.87;67.42;;;;;
2023/08/14 06:47:52;;;;;;;7.5;4.1;;;;;;;24.79;62.23;;;;;
2023/08/14 06:58:52;;;;;;;7.5;4.1;;;;;;;24.91;63.82;;;;;
2023/08/14 07:09:52;;;;;;;7.5;4.1;;;;;;;25.19;61.94;;;;;
2023/08/14 07:20:52;;;;;;;7.1;3.3;;;;;;;25.46;60.88;;;;;
2023/08/14 07:31:52;;;;;;;7.1;3.3;;;;;;;25.99;56.83;;;;;
2023/08/14 07:42:52;;;;;;;7.1;3.3;;;;;;;26.35;57.18;;;;;
2023/08/14 07:53:52;;;;;;;5.1;3.2;;;;;;;26.87;57.04;;;;;
2023/08/14 08:03:53;;;;;;;5.1;3.2;;;;;;;27.45;55.73;;;;;
2023/08/14 08:13:52;;;;;;;5.1;3.2;;;;;;;27.36;51.92;;;;;
2023/08/14 08:24:52;;;;;;;5.2;2.3;;;;;;;27.6;50.92;;;;;
2023/08/14 08:35:52;;;;;;;5.2;2.3;;;;;;;27.56;51.02;;;;;
2023/08/14 08:45:52;;;;;;;5.2;2.3;;;;;;;28.11;53.78;;;;;
2023/08/14 08:55:52;;;;;;;4.3;2.7;;;;;;;28.47;49.64;;;;;
2023/08/14 09:06:52;;;;;;;4.3;2.7;;;;;;;28.53;48.88;;;;;
2023/08/14 09:17:52;;;;;;;5.4;2.9;;;;;;;28.52;50.08;;;;;
2023/08/14 09:28:52;;;;;;;5.4;2.9;;;;;;;28.64;49.39;;;;;
2023/08/14 09:39:52;;;;;;;5.4;2.9;;;;;;;28.33;49.23;;;;;
2023/08/14 09:50:52;;;;;;;5.5;3;;;;;;;28.52;48.32;;;;;
2023/08/14 10:00:52;;;;;;;5.5;3;;;;;;;28.6;49.58;;;;;
2023/08/14 10:11:52;;;;;;;5.5;3;;;;;;;28.79;43.02;;;;;
2023/08/14 10:22:52;;;;;;;7.2;2.7;;;;;;;28.71;42.69;;;;;
2023/08/14 10:32:52;;;;;;;7.2;2.7;;;;;;;29.28;46.32;;;;;
2023/08/14 10:43:53;;;;;;;7.2;2.7;;;;;;;29.69;45.84;;;;;
2023/08/14 10:54:52;;;;;;;4.4;2.4;;;;;;;29.52;41.84;;;;;
2023/08/14 11:04:52;;;;;;;4.4;2.4;;;;;;;29.73;44.67;;;;;
2023/08/14 11:14:54;;;;;;;4.4;2.4;;;;;;;30.08;46.22;;;;;
2023/08/14 11:25:52;;;;;;;5;2.8;;;;;;;30.42;46.73;;;;;
2023/08/14 11:35:52;;;;;;;5;2.8;;;;;;;30.51;44.06;;;;;
2023/08/14 11:45:53;;;;;;;5;2.8;;;;;;;30.55;44.04;;;;;
2023/08/14 11:56:53;;;;;;;6.1;3.1;;;;;;;30.55;44.93;;;;;
2023/08/14 12:06:52;;;;;;;6.1;3.1;;;;;;;31.03;48.42;;;;;
2023/08/14 12:17:52;;;;;;;4.9;2.6;;;;;;;31.14;43.58;;;;;
2023/08/14 12:27:53;;;;;;;4.9;2.6;;;;;;;30.93;48.12;;;;;
2023/08/14 12:38:53;;;;;;;4.9;2.6;;;;;;;31.25;44.35;;;;;
2023/08/14 12:49:53;;;;;;;5.5;2.7;;;;;;;31.31;43.05;;;;;
2023/08/14 12:59:52;;;;;;;5.5;2.7;;;;;;;31.5;44.16;;;;;
2023/08/14 13:09:53;;;;;;;5.5;2.7;;;;;;;31.72;43.27;;;;;
2023/08/14 13:19:53;;;;;;;6.8;3;;;;;;;32.08;45.27;;;;;
2023/08/14 13:30:53;;;;;;;6.8;3;;;;;;;32.27;46.18;;;;;
2023/08/14 13:41:53;;;;;;;6.8;3;;;;;;;32.23;45.4;;;;;
2023/08/14 13:51:53;;;;;;;5.3;3.1;;;;;;;32.36;45.07;;;;;
2023/08/14 14:02:53;;;;;;;5.3;3.1;;;;;;;32.43;42.57;;;;;
2023/08/14 14:12:53;;;;;;;5.3;3.1;;;;;;;32.52;42.58;;;;;
2023/08/14 14:22:53;;;;;;;8.9;3;;;;;;;32.97;42.08;;;;;
2023/08/14 14:33:53;;;;;;;8.9;3;;;;;;;33.22;42.29;;;;;
2023/08/14 14:43:53;;;;;;;8.9;3;;;;;;;33.91;41.91;;;;;
2023/08/14 14:54:53;;;;;;;5.1;2.7;;;;;;;33.97;41.13;;;;;
2023/08/14 15:05:52;;;;;;;5.1;2.7;;;;;;;34.12;39.49;;;;;
2023/08/14 15:15:53;;;;;;;5.1;2.7;;;;;;;33.64;42.52;;;;;
2023/08/14 15:25:53;;;;;;;6.8;2.9;;;;;;;36.89;36.29;;;;;
2023/08/14 15:36:53;;;;;;;6.8;2.9;;;;;;;39.07;33.7;;;;;
2023/08/14 15:46:53;;;;;;;6.8;2.9;;;;;;;39.18;33.5;;;;;
2023/08/14 15:56:53;;;;;;;8.8;3.3;;;;;;;40.49;32.65;;;;;
2023/08/14 16:07:53;;;;;;;8.8;3.3;;;;;;;41.39;30.49;;;;;
2023/08/14 16:18:53;;;;;;;17.1;7;;;;;;;39.98;32.99;;;;;
2023/08/14 16:28:53;;;;;;;17.1;7;;;;;;;36.86;36.85;;;;;
2023/08/14 16:38:53;;;;;;;17.1;7;;;;;;;34.49;41.52;;;;;
2023/08/14 16:49:53;;;;;;;30.9;11.6;;;;;;;33.36;43.32;;;;;
2023/08/14 16:59:53;;;;;;;30.9;11.6;;;;;;;32.57;44.85;;;;;
2023/08/14 17:09:53;;;;;;;30.9;11.6;;;;;;;31.73;46.9;;;;;
2023/08/14 17:20:53;;;;;;;8.7;3.6;;;;;;;30.95;51.72;;;;;
2023/08/14 17:30:53;;;;;;;8.7;3.6;;;;;;;30.26;52.84;;;;;
2023/08/14 17:40:53;;;;;;;8.7;3.6;;;;;;;29.48;54.74;;;;;
2023/08/14 17:51:53;;;;;;;10;6.4;;;;;;;28.38;56.33;;;;;
2023/08/14 18:02:53;;;;;;;10;6.4;;;;;;;27.52;60.53;;;;;
2023/08/14 18:12:53;;;;;;;10;6.4;;;;;;;26.74;64.03;;;;;
2023/08/14 18:22:53;;;;;;;13;7;;;;;;;26.08;66.11;;;;;
2023/08/14 18:33:53;;;;;;;13;7;;;;;;;25.51;70.16;;;;;
2023/08/14 18:43:53;;;;;;;13;7;;;;;;;25.08;71.54;;;;;
2023/08/14 18:53:53;;;;;;;11.7;7.6;;;;;;;24.76;72.38;;;;;
2023/08/14 18:56:28;;;;;;;11.7;7.6;;;;;;;24.68;72.6;;;;;
2023/08/14 19:06:29;;;;;;;11.7;7.6;;;;;;;24.36;73.15;;;;;
2023/08/14 19:16:28;;;;;;;11.7;7.6;;;;;;;23.99;74.63;;;;;
2023/08/14 19:26:28;;;;;;;13.1;9.3;;;;;;;23.91;73.6;;;;;
2023/08/14 19:36:28;;;;;;;13.1;9.3;;;;;;;23.8;73.3;;;;;
2023/08/14 19:46:28;;;;;;;13.1;9.3;;;;;;;23.82;72.32;;;;;
2023/08/14 19:57:28;;;;;;;25.4;19.1;;;;;;;23.72;72.09;;;;;
2023/08/14 20:07:28;;;;;;;25.4;19.1;;;;;;;23.43;73.09;;;;;
2023/08/14 20:18:29;;;;;;;14.1;11.3;;;;;;;23.11;75.21;;;;;
2023/08/14 20:29:28;;;;;;;14.1;11.3;;;;;;;22.75;75.72;;;;;
2023/08/14 20:39:28;;;;;;;14.1;11.3;;;;;;;22.43;76.77;;;;;
2023/08/14 20:49:28;;;;;;;15.6;11.5;;;;;;;22.19;77.65;;;;;
2023/08/14 20:59:28;;;;;;;15.6;11.5;;;;;;;21.93;77.67;;;;;
2023/08/14 21:09:28;;;;;;;15.6;11.5;;;;;;;21.64;80.4;;;;;
2023/08/14 21:20:28;;;;;;;16.6;13.3;;;;;;;21.44;79.43;;;;;
2023/08/14 21:31:29;;;;;;;16.6;13.3;;;;;;;21.23;81.01;;;;;
2023/08/14 21:41:28;;;;;;;16.6;13.3;;;;;;;21.33;81.25;;;;;
2023/08/14 21:51:28;;;;;;;13.8;10.5;;;;;;;21.25;81.6;;;;;
2023/08/14 22:02:28;;;;;;;13.8;10.5;;;;;;;21.05;80.8;;;;;
2023/08/14 22:12:28;;;;;;;13.8;10.5;;;;;;;20.97;81.38;;;;;
2023/08/14 22:23:31;;;;;;;15.6;9.7;;;;;;;20.74;83.6;;;;;
2023/08/14 22:34:29;;;;;;;15.6;9.7;;;;;;;20.66;83.4;;;;;
2023/08/14 22:44:28;;;;;;;15.6;9.7;;;;;;;20.51;83.68;;;;;
2023/08/14 22:54:29;;;;;;;12.4;9.4;;;;;;;20.41;83;;;;;
2023/08/14 23:04:29;;;;;;;12.4;9.4;;;;;;;20.39;83.02;;;;;
2023/08/14 23:14:29;;;;;;;12.4;9.4;;;;;;;20.27;82.87;;;;;
2023/08/14 23:25:28;;;;;;;11.7;9.2;;;;;;;20.03;84.95;;;;;
2023/08/14 23:36:29;;;;;;;11.7;9.2;;;;;;;19.85;86.5;;;;;
2023/08/14 23:46:28;;;;;;;11.7;9.2;;;;;;;19.89;85.07;;;;;
2023/08/14 23:56:29;;;;;;;11.8;8.3;;;;;;;19.78;85.27;;;;;
